sensor_id;sensor_type;location;lat;lon;timestamp;P1;durP1;ratioP1;P2;durP2;ratioP2
11829;SDS011;5972;42.134;24.718;2023-07-29T00:02:12;2.67;;;2.47;;
11829;SDS011;5972;42.134;24.718;2023-07-29T00:04:38;2.92;;;2.70;;
11829;SDS011;5972;42.134;24.718;2023-07-29T00:07:06;3.92;;;3.13;;
11829;SDS011;5972;42.134;24.718;2023-07-29T00:09:33;3.92;;;2.70;;
11829;SDS011;5972;42.134;24.718;2023-07-29T00:12:00;5.30;;;2.85;;
11829;SDS011;5972;42.134;24.718;2023-07-29T00:14:27;4.45;;;3.17;;
11829;SDS011;5972;42.134;24.718;2023-07-29T00:16:53;5.63;;;2.65;;
11829;SDS011;5972;42.134;24.718;2023-07-29T00:19:20;3.60;;;2.55;;
11829;SDS011;5972;42.134;24.718;2023-07-29T00:21:48;3.58;;;2.60;;
11829;SDS011;5972;42.134;24.718;2023-07-29T00:24:16;3.47;;;2.75;;
11829;SDS011;5972;42.134;24.718;2023-07-29T00:26:43;3.28;;;2.90;;
11829;SDS011;5972;42.134;24.718;2023-07-29T00:29:10;6.47;;;3.08;;
11829;SDS011;5972;42.134;24.718;2023-07-29T00:31:36;4.45;;;2.63;;
11829;SDS011;5972;42.134;24.718;2023-07-29T00:34:03;6.75;;;2.88;;
11829;SDS011;5972;42.134;24.718;2023-07-29T00:36:30;6.85;;;3.22;;
11829;SDS011;5972;42.134;24.718;2023-07-29T00:38:57;5.68;;;2.90;;
11829;SDS011;5972;42.134;24.718;2023-07-29T00:41:25;4.35;;;2.85;;
11829;SDS011;5972;42.134;24.718;2023-07-29T00:43:52;3.28;;;2.90;;
11829;SDS011;5972;42.134;24.718;2023-07-29T00:46:19;3.53;;;2.90;;
11829;SDS011;5972;42.134;24.718;2023-07-29T00:48:46;6.32;;;3.22;;
11829;SDS011;5972;42.134;24.718;2023-07-29T00:51:13;5.35;;;2.88;;
11829;SDS011;5972;42.134;24.718;2023-07-29T00:53:40;6.40;;;3.28;;
11829;SDS011;5972;42.134;24.718;2023-07-29T00:56:07;4.72;;;3.10;;
11829;SDS011;5972;42.134;24.718;2023-07-29T00:58:35;4.53;;;3.10;;
11829;SDS011;5972;42.134;24.718;2023-07-29T01:01:02;4.50;;;2.88;;
11829;SDS011;5972;42.134;24.718;2023-07-29T01:03:29;7.18;;;3.30;;
11829;SDS011;5972;42.134;24.718;2023-07-29T01:05:59;3.95;;;3.10;;
11829;SDS011;5972;42.134;24.718;2023-07-29T01:08:36;3.53;;;3.10;;
11829;SDS011;5972;42.134;24.718;2023-07-29T01:11:12;4.35;;;3.10;;
11829;SDS011;5972;42.134;24.718;2023-07-29T01:13:50;3.38;;;3.08;;
11829;SDS011;5972;42.134;24.718;2023-07-29T01:16:21;7.18;;;2.92;;
11829;SDS011;5972;42.134;24.718;2023-07-29T01:18:56;8.75;;;3.38;;
11829;SDS011;5972;42.134;24.718;2023-07-29T01:21:28;5.38;;;3.30;;
11829;SDS011;5972;42.134;24.718;2023-07-29T01:23:59;4.95;;;3.83;;
11829;SDS011;5972;42.134;24.718;2023-07-29T01:26:26;4.65;;;3.78;;
11829;SDS011;5972;42.134;24.718;2023-07-29T01:28:54;5.05;;;4.38;;
11829;SDS011;5972;42.134;24.718;2023-07-29T01:31:23;6.05;;;4.13;;
11829;SDS011;5972;42.134;24.718;2023-07-29T01:33:57;6.05;;;4.00;;
11829;SDS011;5972;42.134;24.718;2023-07-29T01:36:28;5.70;;;4.10;;
11829;SDS011;5972;42.134;24.718;2023-07-29T01:39:00;7.25;;;4.28;;
11829;SDS011;5972;42.134;24.718;2023-07-29T01:41:29;6.85;;;4.07;;
11829;SDS011;5972;42.134;24.718;2023-07-29T01:43:56;6.05;;;4.00;;
11829;SDS011;5972;42.134;24.718;2023-07-29T01:46:23;6.35;;;4.22;;
11829;SDS011;5972;42.134;24.718;2023-07-29T01:48:50;7.40;;;4.00;;
11829;SDS011;5972;42.134;24.718;2023-07-29T01:51:17;7.97;;;4.75;;
11829;SDS011;5972;42.134;24.718;2023-07-29T01:53:43;7.07;;;4.60;;
11829;SDS011;5972;42.134;24.718;2023-07-29T01:56:12;8.77;;;4.43;;
11829;SDS011;5972;42.134;24.718;2023-07-29T01:58:38;6.28;;;3.92;;
11829;SDS011;5972;42.134;24.718;2023-07-29T02:01:05;9.65;;;4.15;;
11829;SDS011;5972;42.134;24.718;2023-07-29T02:03:32;5.55;;;3.92;;
11829;SDS011;5972;42.134;24.718;2023-07-29T02:05:59;5.32;;;4.20;;
11829;SDS011;5972;42.134;24.718;2023-07-29T02:08:25;7.78;;;3.88;;
11829;SDS011;5972;42.134;24.718;2023-07-29T02:10:52;12.05;;;4.60;;
11829;SDS011;5972;42.134;24.718;2023-07-29T02:13:20;7.60;;;4.25;;
11829;SDS011;5972;42.134;24.718;2023-07-29T02:15:47;5.07;;;3.90;;
11829;SDS011;5972;42.134;24.718;2023-07-29T02:18:14;9.57;;;4.72;;
11829;SDS011;5972;42.134;24.718;2023-07-29T02:20:41;5.90;;;4.53;;
11829;SDS011;5972;42.134;24.718;2023-07-29T02:23:14;6.00;;;4.05;;
11829;SDS011;5972;42.134;24.718;2023-07-29T02:25:41;5.90;;;4.45;;
11829;SDS011;5972;42.134;24.718;2023-07-29T02:28:07;6.22;;;4.60;;
11829;SDS011;5972;42.134;24.718;2023-07-29T02:30:35;7.18;;;4.45;;
11829;SDS011;5972;42.134;24.718;2023-07-29T02:33:02;4.57;;;4.13;;
11829;SDS011;5972;42.134;24.718;2023-07-29T02:35:29;6.05;;;4.10;;
11829;SDS011;5972;42.134;24.718;2023-07-29T02:37:56;5.57;;;4.07;;
11829;SDS011;5972;42.134;24.718;2023-07-29T02:40:23;4.35;;;3.95;;
11829;SDS011;5972;42.134;24.718;2023-07-29T02:42:51;6.43;;;4.20;;
11829;SDS011;5972;42.134;24.718;2023-07-29T02:45:18;13.70;;;4.20;;
11829;SDS011;5972;42.134;24.718;2023-07-29T02:47:46;10.02;;;4.50;;
11829;SDS011;5972;42.134;24.718;2023-07-29T02:50:13;6.15;;;4.05;;
11829;SDS011;5972;42.134;24.718;2023-07-29T02:52:40;5.10;;;3.95;;
11829;SDS011;5972;42.134;24.718;2023-07-29T02:55:07;13.13;;;4.38;;
11829;SDS011;5972;42.134;24.718;2023-07-29T02:57:34;10.38;;;4.30;;
11829;SDS011;5972;42.134;24.718;2023-07-29T03:00:00;8.63;;;4.40;;
11829;SDS011;5972;42.134;24.718;2023-07-29T03:02:27;5.47;;;4.20;;
11829;SDS011;5972;42.134;24.718;2023-07-29T03:04:55;6.03;;;4.20;;
11829;SDS011;5972;42.134;24.718;2023-07-29T03:07:22;6.00;;;4.10;;
11829;SDS011;5972;42.134;24.718;2023-07-29T03:09:49;5.88;;;4.38;;
11829;SDS011;5972;42.134;24.718;2023-07-29T03:12:15;6.60;;;4.20;;
11829;SDS011;5972;42.134;24.718;2023-07-29T03:14:42;5.93;;;4.10;;
11829;SDS011;5972;42.134;24.718;2023-07-29T03:17:09;4.20;;;3.50;;
11829;SDS011;5972;42.134;24.718;2023-07-29T03:19:36;5.38;;;3.33;;
11829;SDS011;5972;42.134;24.718;2023-07-29T03:22:04;6.72;;;3.65;;
11829;SDS011;5972;42.134;24.718;2023-07-29T03:24:31;6.10;;;3.20;;
11829;SDS011;5972;42.134;24.718;2023-07-29T03:26:57;6.90;;;3.97;;
11829;SDS011;5972;42.134;24.718;2023-07-29T03:29:24;3.70;;;3.40;;
11829;SDS011;5972;42.134;24.718;2023-07-29T03:31:51;5.07;;;3.80;;
11829;SDS011;5972;42.134;24.718;2023-07-29T03:34:18;5.57;;;3.88;;
11829;SDS011;5972;42.134;24.718;2023-07-29T03:36:45;4.50;;;3.85;;
11829;SDS011;5972;42.134;24.718;2023-07-29T03:39:14;5.53;;;3.60;;
11829;SDS011;5972;42.134;24.718;2023-07-29T03:41:41;6.57;;;3.47;;
11829;SDS011;5972;42.134;24.718;2023-07-29T03:44:07;5.20;;;3.80;;
11829;SDS011;5972;42.134;24.718;2023-07-29T03:46:34;6.65;;;3.75;;
11829;SDS011;5972;42.134;24.718;2023-07-29T03:49:01;7.65;;;3.58;;
11829;SDS011;5972;42.134;24.718;2023-07-29T03:51:28;7.30;;;4.07;;
11829;SDS011;5972;42.134;24.718;2023-07-29T03:53:55;4.95;;;4.10;;
11829;SDS011;5972;42.134;24.718;2023-07-29T03:56:23;11.00;;;3.72;;
11829;SDS011;5972;42.134;24.718;2023-07-29T03:58:50;9.18;;;3.80;;
11829;SDS011;5972;42.134;24.718;2023-07-29T04:01:17;6.80;;;3.70;;
11829;SDS011;5972;42.134;24.718;2023-07-29T04:03:44;4.60;;;3.67;;
11829;SDS011;5972;42.134;24.718;2023-07-29T04:06:11;9.55;;;3.85;;
11829;SDS011;5972;42.134;24.718;2023-07-29T04:08:38;5.20;;;3.80;;
11829;SDS011;5972;42.134;24.718;2023-07-29T04:11:06;5.28;;;3.75;;
11829;SDS011;5972;42.134;24.718;2023-07-29T04:13:34;6.25;;;3.90;;
11829;SDS011;5972;42.134;24.718;2023-07-29T04:16:02;5.43;;;3.75;;
11829;SDS011;5972;42.134;24.718;2023-07-29T04:18:29;4.43;;;3.47;;
11829;SDS011;5972;42.134;24.718;2023-07-29T04:20:56;10.88;;;3.58;;
11829;SDS011;5972;42.134;24.718;2023-07-29T04:23:23;7.07;;;3.90;;
11829;SDS011;5972;42.134;24.718;2023-07-29T04:25:49;7.60;;;3.47;;
11829;SDS011;5972;42.134;24.718;2023-07-29T04:28:16;6.20;;;3.83;;
11829;SDS011;5972;42.134;24.718;2023-07-29T04:30:45;9.70;;;4.20;;
11829;SDS011;5972;42.134;24.718;2023-07-29T04:33:11;6.78;;;3.92;;
11829;SDS011;5972;42.134;24.718;2023-07-29T04:35:38;7.50;;;3.75;;
11829;SDS011;5972;42.134;24.718;2023-07-29T04:38:05;10.52;;;3.95;;
11829;SDS011;5972;42.134;24.718;2023-07-29T04:40:32;6.00;;;4.03;;
11829;SDS011;5972;42.134;24.718;2023-07-29T04:43:00;10.02;;;3.63;;
11829;SDS011;5972;42.134;24.718;2023-07-29T04:45:27;3.92;;;3.30;;
11829;SDS011;5972;42.134;24.718;2023-07-29T04:47:56;5.70;;;3.95;;
11829;SDS011;5972;42.134;24.718;2023-07-29T04:50:23;7.03;;;3.90;;
11829;SDS011;5972;42.134;24.718;2023-07-29T04:52:49;6.95;;;3.42;;
11829;SDS011;5972;42.134;24.718;2023-07-29T04:55:17;7.68;;;3.90;;
11829;SDS011;5972;42.134;24.718;2023-07-29T04:57:44;5.25;;;3.67;;
11829;SDS011;5972;42.134;24.718;2023-07-29T05:00:11;6.97;;;3.92;;
11829;SDS011;5972;42.134;24.718;2023-07-29T05:02:38;10.65;;;3.97;;
11829;SDS011;5972;42.134;24.718;2023-07-29T05:05:07;6.15;;;3.90;;
11829;SDS011;5972;42.134;24.718;2023-07-29T05:07:34;6.78;;;4.28;;
11829;SDS011;5972;42.134;24.718;2023-07-29T05:10:01;8.05;;;4.20;;
11829;SDS011;5972;42.134;24.718;2023-07-29T05:12:27;6.93;;;3.90;;
11829;SDS011;5972;42.134;24.718;2023-07-29T05:14:55;4.18;;;3.78;;
11829;SDS011;5972;42.134;24.718;2023-07-29T05:17:22;6.40;;;4.00;;
11829;SDS011;5972;42.134;24.718;2023-07-29T05:19:48;5.18;;;3.97;;
11829;SDS011;5972;42.134;24.718;2023-07-29T05:22:16;5.68;;;3.90;;
11829;SDS011;5972;42.134;24.718;2023-07-29T05:24:43;6.47;;;3.83;;
11829;SDS011;5972;42.134;24.718;2023-07-29T05:27:10;7.65;;;3.65;;
11829;SDS011;5972;42.134;24.718;2023-07-29T05:29:37;7.32;;;3.92;;
11829;SDS011;5972;42.134;24.718;2023-07-29T05:32:04;4.70;;;3.50;;
11829;SDS011;5972;42.134;24.718;2023-07-29T05:34:31;9.18;;;3.53;;
11829;SDS011;5972;42.134;24.718;2023-07-29T05:36:58;5.15;;;3.60;;
11829;SDS011;5972;42.134;24.718;2023-07-29T05:39:26;4.28;;;3.28;;
11829;SDS011;5972;42.134;24.718;2023-07-29T05:41:53;6.65;;;3.70;;
11829;SDS011;5972;42.134;24.718;2023-07-29T05:44:20;4.88;;;3.42;;
11829;SDS011;5972;42.134;24.718;2023-07-29T05:46:46;7.85;;;2.72;;
11829;SDS011;5972;42.134;24.718;2023-07-29T05:49:13;6.70;;;3.75;;
11829;SDS011;5972;42.134;24.718;2023-07-29T05:51:40;3.17;;;2.88;;
11829;SDS011;5972;42.134;24.718;2023-07-29T05:54:07;6.32;;;2.80;;
11829;SDS011;5972;42.134;24.718;2023-07-29T05:56:35;4.80;;;2.95;;
11829;SDS011;5972;42.134;24.718;2023-07-29T05:59:02;4.93;;;2.92;;
11829;SDS011;5972;42.134;24.718;2023-07-29T06:01:28;4.38;;;2.80;;
11829;SDS011;5972;42.134;24.718;2023-07-29T06:03:55;5.50;;;2.90;;
11829;SDS011;5972;42.134;24.718;2023-07-29T06:06:22;3.85;;;3.00;;
11829;SDS011;5972;42.134;24.718;2023-07-29T06:08:49;4.55;;;2.92;;
11829;SDS011;5972;42.134;24.718;2023-07-29T06:11:16;3.78;;;2.80;;
11829;SDS011;5972;42.134;24.718;2023-07-29T06:13:44;3.40;;;2.90;;
11829;SDS011;5972;42.134;24.718;2023-07-29T06:16:12;3.65;;;2.95;;
11829;SDS011;5972;42.134;24.718;2023-07-29T06:18:38;3.92;;;2.75;;
11829;SDS011;5972;42.134;24.718;2023-07-29T06:21:05;3.83;;;2.90;;
11829;SDS011;5972;42.134;24.718;2023-07-29T06:23:33;8.45;;;2.50;;
11829;SDS011;5972;42.134;24.718;2023-07-29T06:25:59;4.85;;;2.38;;
11829;SDS011;5972;42.134;24.718;2023-07-29T06:28:26;4.55;;;2.90;;
11829;SDS011;5972;42.134;24.718;2023-07-29T06:30:55;8.77;;;2.58;;
11829;SDS011;5972;42.134;24.718;2023-07-29T06:33:22;5.20;;;2.60;;
11829;SDS011;5972;42.134;24.718;2023-07-29T06:35:48;3.38;;;2.58;;
11829;SDS011;5972;42.134;24.718;2023-07-29T06:38:15;7.45;;;2.80;;
11829;SDS011;5972;42.134;24.718;2023-07-29T06:40:46;3.70;;;2.58;;
11829;SDS011;5972;42.134;24.718;2023-07-29T06:43:13;5.30;;;2.70;;
11829;SDS011;5972;42.134;24.718;2023-07-29T06:45:40;5.53;;;2.60;;
11829;SDS011;5972;42.134;24.718;2023-07-29T06:48:08;4.35;;;2.70;;
11829;SDS011;5972;42.134;24.718;2023-07-29T06:50:35;3.67;;;2.72;;
11829;SDS011;5972;42.134;24.718;2023-07-29T06:53:02;6.32;;;2.50;;
11829;SDS011;5972;42.134;24.718;2023-07-29T06:55:29;3.05;;;2.50;;
11829;SDS011;5972;42.134;24.718;2023-07-29T06:57:56;3.58;;;2.40;;
11829;SDS011;5972;42.134;24.718;2023-07-29T07:00:22;4.70;;;2.45;;
11829;SDS011;5972;42.134;24.718;2023-07-29T07:02:49;2.78;;;2.17;;
11829;SDS011;5972;42.134;24.718;2023-07-29T07:05:17;4.78;;;2.70;;
11829;SDS011;5972;42.134;24.718;2023-07-29T07:07:44;2.83;;;2.50;;
11829;SDS011;5972;42.134;24.718;2023-07-29T07:10:11;7.03;;;2.63;;
11829;SDS011;5972;42.134;24.718;2023-07-29T07:12:38;7.60;;;3.20;;
11829;SDS011;5972;42.134;24.718;2023-07-29T07:15:05;4.88;;;2.45;;
11829;SDS011;5972;42.134;24.718;2023-07-29T07:17:33;3.60;;;2.30;;
11829;SDS011;5972;42.134;24.718;2023-07-29T07:19:59;7.93;;;2.80;;
11829;SDS011;5972;42.134;24.718;2023-07-29T07:22:28;2.95;;;2.45;;
11829;SDS011;5972;42.134;24.718;2023-07-29T07:24:54;6.05;;;2.60;;
11829;SDS011;5972;42.134;24.718;2023-07-29T07:27:21;3.85;;;2.33;;
11829;SDS011;5972;42.134;24.718;2023-07-29T07:29:48;5.28;;;2.97;;
11829;SDS011;5972;42.134;24.718;2023-07-29T07:32:15;10.98;;;2.58;;
11829;SDS011;5972;42.134;24.718;2023-07-29T07:34:42;4.82;;;2.50;;
11829;SDS011;5972;42.134;24.718;2023-07-29T07:37:08;5.40;;;2.92;;
11829;SDS011;5972;42.134;24.718;2023-07-29T07:39:37;3.42;;;2.47;;
11829;SDS011;5972;42.134;24.718;2023-07-29T07:42:04;2.72;;;2.47;;
11829;SDS011;5972;42.134;24.718;2023-07-29T07:44:31;3.03;;;2.53;;
11829;SDS011;5972;42.134;24.718;2023-07-29T07:46:58;6.35;;;2.80;;
11829;SDS011;5972;42.134;24.718;2023-07-29T07:49:24;5.00;;;2.70;;
11829;SDS011;5972;42.134;24.718;2023-07-29T07:51:51;3.85;;;2.72;;
11829;SDS011;5972;42.134;24.718;2023-07-29T07:54:18;6.90;;;2.83;;
11829;SDS011;5972;42.134;24.718;2023-07-29T07:56:46;4.53;;;2.45;;
11829;SDS011;5972;42.134;24.718;2023-07-29T07:59:13;3.90;;;2.70;;
11829;SDS011;5972;42.134;24.718;2023-07-29T08:01:39;4.22;;;2.30;;
11829;SDS011;5972;42.134;24.718;2023-07-29T08:04:06;3.83;;;2.60;;
11829;SDS011;5972;42.134;24.718;2023-07-29T08:06:33;4.05;;;2.85;;
11829;SDS011;5972;42.134;24.718;2023-07-29T08:09:00;3.83;;;2.63;;
11829;SDS011;5972;42.134;24.718;2023-07-29T08:11:27;4.30;;;2.45;;
11829;SDS011;5972;42.134;24.718;2023-07-29T08:13:55;2.92;;;2.70;;
11829;SDS011;5972;42.134;24.718;2023-07-29T08:16:22;4.00;;;2.85;;
11829;SDS011;5972;42.134;24.718;2023-07-29T08:18:49;5.22;;;2.50;;
11829;SDS011;5972;42.134;24.718;2023-07-29T08:21:16;10.93;;;2.97;;
11829;SDS011;5972;42.134;24.718;2023-07-29T08:23:42;6.15;;;2.90;;
11829;SDS011;5972;42.134;24.718;2023-07-29T08:26:09;3.40;;;2.85;;
11829;SDS011;5972;42.134;24.718;2023-07-29T08:28:36;14.35;;;2.90;;
11829;SDS011;5972;42.134;24.718;2023-07-29T08:31:05;5.95;;;2.78;;
11829;SDS011;5972;42.134;24.718;2023-07-29T08:33:32;4.28;;;2.90;;
11829;SDS011;5972;42.134;24.718;2023-07-29T08:36:00;3.33;;;3.03;;
11829;SDS011;5972;42.134;24.718;2023-07-29T08:38:26;6.97;;;2.50;;
11829;SDS011;5972;42.134;24.718;2023-07-29T08:40:54;8.82;;;2.70;;
11829;SDS011;5972;42.134;24.718;2023-07-29T08:43:27;2.97;;;2.78;;
11829;SDS011;5972;42.134;24.718;2023-07-29T08:45:56;5.13;;;2.92;;
11829;SDS011;5972;42.134;24.718;2023-07-29T08:48:29;3.17;;;2.70;;
11829;SDS011;5972;42.134;24.718;2023-07-29T08:50:58;4.90;;;2.80;;
11829;SDS011;5972;42.134;24.718;2023-07-29T08:53:27;5.78;;;3.20;;
11829;SDS011;5972;42.134;24.718;2023-07-29T08:55:54;7.57;;;2.80;;
11829;SDS011;5972;42.134;24.718;2023-07-29T08:58:22;9.40;;;3.40;;
11829;SDS011;5972;42.134;24.718;2023-07-29T09:00:49;5.80;;;3.05;;
11829;SDS011;5972;42.134;24.718;2023-07-29T09:03:17;5.03;;;3.08;;
11829;SDS011;5972;42.134;24.718;2023-07-29T09:05:45;5.07;;;3.08;;
11829;SDS011;5972;42.134;24.718;2023-07-29T09:08:12;10.35;;;3.10;;
11829;SDS011;5972;42.134;24.718;2023-07-29T09:10:39;4.93;;;3.28;;
11829;SDS011;5972;42.134;24.718;2023-07-29T09:13:06;3.95;;;3.10;;
11829;SDS011;5972;42.134;24.718;2023-07-29T09:15:34;4.47;;;3.30;;
11829;SDS011;5972;42.134;24.718;2023-07-29T09:18:08;5.43;;;3.20;;
11829;SDS011;5972;42.134;24.718;2023-07-29T09:20:36;4.63;;;3.22;;
11829;SDS011;5972;42.134;24.718;2023-07-29T09:23:06;3.83;;;3.40;;
11829;SDS011;5972;42.134;24.718;2023-07-29T09:25:35;4.82;;;2.90;;
11829;SDS011;5972;42.134;24.718;2023-07-29T09:28:07;6.03;;;3.03;;
11829;SDS011;5972;42.134;24.718;2023-07-29T09:30:35;3.45;;;2.90;;
11829;SDS011;5972;42.134;24.718;2023-07-29T09:33:02;8.57;;;3.28;;
11829;SDS011;5972;42.134;24.718;2023-07-29T09:35:30;4.10;;;3.10;;
11829;SDS011;5972;42.134;24.718;2023-07-29T09:37:59;3.00;;;2.80;;
11829;SDS011;5972;42.134;24.718;2023-07-29T09:40:27;3.67;;;3.00;;
11829;SDS011;5972;42.134;24.718;2023-07-29T09:43:00;4.00;;;2.90;;
11829;SDS011;5972;42.134;24.718;2023-07-29T09:45:27;5.60;;;3.05;;
11829;SDS011;5972;42.134;24.718;2023-07-29T09:47:54;5.97;;;3.08;;
11829;SDS011;5972;42.134;24.718;2023-07-29T09:50:23;4.60;;;2.63;;
11829;SDS011;5972;42.134;24.718;2023-07-29T09:52:51;3.95;;;3.30;;
11829;SDS011;5972;42.134;24.718;2023-07-29T09:55:19;7.30;;;2.75;;
11829;SDS011;5972;42.134;24.718;2023-07-29T09:57:49;4.78;;;2.80;;
11829;SDS011;5972;42.134;24.718;2023-07-29T10:00:19;2.60;;;2.40;;
11829;SDS011;5972;42.134;24.718;2023-07-29T10:02:46;3.08;;;2.72;;
11829;SDS011;5972;42.134;24.718;2023-07-29T10:05:14;3.50;;;2.40;;
11829;SDS011;5972;42.134;24.718;2023-07-29T10:07:41;5.68;;;3.03;;
11829;SDS011;5972;42.134;24.718;2023-07-29T10:10:08;4.38;;;2.78;;
11829;SDS011;5972;42.134;24.718;2023-07-29T10:12:35;4.05;;;2.92;;
11829;SDS011;5972;42.134;24.718;2023-07-29T10:15:04;3.00;;;2.58;;
11829;SDS011;5972;42.134;24.718;2023-07-29T10:17:33;3.45;;;2.55;;
11829;SDS011;5972;42.134;24.718;2023-07-29T10:20:01;2.85;;;2.50;;
11829;SDS011;5972;42.134;24.718;2023-07-29T10:22:32;4.60;;;2.72;;
11829;SDS011;5972;42.134;24.718;2023-07-29T10:25:02;3.00;;;2.70;;
11829;SDS011;5972;42.134;24.718;2023-07-29T10:27:31;4.72;;;2.80;;
11829;SDS011;5972;42.134;24.718;2023-07-29T10:30:10;3.17;;;2.72;;
11829;SDS011;5972;42.134;24.718;2023-07-29T10:32:38;2.85;;;2.50;;
11829;SDS011;5972;42.134;24.718;2023-07-29T10:35:06;2.78;;;2.58;;
11829;SDS011;5972;42.134;24.718;2023-07-29T10:37:34;4.47;;;2.60;;
11829;SDS011;5972;42.134;24.718;2023-07-29T10:40:01;5.22;;;2.40;;
11829;SDS011;5972;42.134;24.718;2023-07-29T10:42:33;5.47;;;2.30;;
11829;SDS011;5972;42.134;24.718;2023-07-29T10:45:00;2.60;;;2.40;;
11829;SDS011;5972;42.134;24.718;2023-07-29T10:47:44;2.65;;;2.20;;
11829;SDS011;5972;42.134;24.718;2023-07-29T10:50:16;2.78;;;2.30;;
11829;SDS011;5972;42.134;24.718;2023-07-29T10:52:46;4.47;;;2.28;;
11829;SDS011;5972;42.134;24.718;2023-07-29T10:55:23;3.13;;;2.20;;
11829;SDS011;5972;42.134;24.718;2023-07-29T10:57:51;2.60;;;2.20;;
11829;SDS011;5972;42.134;24.718;2023-07-29T11:00:19;4.35;;;2.50;;
11829;SDS011;5972;42.134;24.718;2023-07-29T11:02:56;3.58;;;2.40;;
11829;SDS011;5972;42.134;24.718;2023-07-29T11:05:25;2.42;;;2.22;;
11829;SDS011;5972;42.134;24.718;2023-07-29T11:07:52;3.38;;;2.20;;
11829;SDS011;5972;42.134;24.718;2023-07-29T11:10:19;4.90;;;2.35;;
11829;SDS011;5972;42.134;24.718;2023-07-29T11:12:48;3.17;;;2.60;;
11829;SDS011;5972;42.134;24.718;2023-07-29T11:15:21;3.33;;;2.05;;
11829;SDS011;5972;42.134;24.718;2023-07-29T11:17:51;2.42;;;2.17;;
11829;SDS011;5972;42.134;24.718;2023-07-29T11:20:20;2.60;;;2.20;;
11829;SDS011;5972;42.134;24.718;2023-07-29T11:22:48;2.47;;;2.28;;
11829;SDS011;5972;42.134;24.718;2023-07-29T11:25:16;2.75;;;2.00;;
11829;SDS011;5972;42.134;24.718;2023-07-29T11:27:44;2.30;;;2.10;;
11829;SDS011;5972;42.134;24.718;2023-07-29T11:30:12;6.40;;;2.03;;
11829;SDS011;5972;42.134;24.718;2023-07-29T11:32:40;3.20;;;2.45;;
11829;SDS011;5972;42.134;24.718;2023-07-29T11:35:10;2.03;;;1.92;;
11829;SDS011;5972;42.134;24.718;2023-07-29T11:37:38;5.10;;;1.98;;
11829;SDS011;5972;42.134;24.718;2023-07-29T11:40:06;3.30;;;2.10;;
11829;SDS011;5972;42.134;24.718;2023-07-29T11:42:35;2.63;;;2.03;;
11829;SDS011;5972;42.134;24.718;2023-07-29T11:45:03;2.03;;;1.92;;
11829;SDS011;5972;42.134;24.718;2023-07-29T11:47:31;2.28;;;2.00;;
11829;SDS011;5972;42.134;24.718;2023-07-29T11:50:02;2.63;;;1.98;;
11829;SDS011;5972;42.134;24.718;2023-07-29T11:52:30;3.50;;;2.20;;
11829;SDS011;5972;42.134;24.718;2023-07-29T11:54:58;2.78;;;2.45;;
11829;SDS011;5972;42.134;24.718;2023-07-29T11:57:24;2.67;;;2.30;;
11829;SDS011;5972;42.134;24.718;2023-07-29T11:59:51;2.63;;;1.80;;
11829;SDS011;5972;42.134;24.718;2023-07-29T12:02:19;154.05;;;10.85;;
11829;SDS011;5972;42.134;24.718;2023-07-29T12:04:47;3.95;;;2.30;;
11829;SDS011;5972;42.134;24.718;2023-07-29T12:07:16;12.68;;;2.40;;
11829;SDS011;5972;42.134;24.718;2023-07-29T12:09:45;2.15;;;1.95;;
11829;SDS011;5972;42.134;24.718;2023-07-29T12:12:13;4.57;;;2.00;;
11829;SDS011;5972;42.134;24.718;2023-07-29T12:14:43;6.90;;;2.35;;
11829;SDS011;5972;42.134;24.718;2023-07-29T12:17:11;2.97;;;2.35;;
11829;SDS011;5972;42.134;24.718;2023-07-29T12:19:39;2.85;;;2.33;;
11829;SDS011;5972;42.134;24.718;2023-07-29T12:22:07;3.58;;;2.20;;
11829;SDS011;5972;42.134;24.718;2023-07-29T12:24:35;3.78;;;2.03;;
11829;SDS011;5972;42.134;24.718;2023-07-29T12:27:05;4.93;;;2.25;;
11829;SDS011;5972;42.134;24.718;2023-07-29T12:29:32;4.57;;;2.10;;
11829;SDS011;5972;42.134;24.718;2023-07-29T12:32:06;2.33;;;1.77;;
11829;SDS011;5972;42.134;24.718;2023-07-29T12:34:33;3.72;;;1.67;;
11829;SDS011;5972;42.134;24.718;2023-07-29T12:37:02;2.33;;;1.58;;
11829;SDS011;5972;42.134;24.718;2023-07-29T12:39:29;2.67;;;1.90;;
11829;SDS011;5972;42.134;24.718;2023-07-29T12:41:59;3.85;;;1.80;;
11829;SDS011;5972;42.134;24.718;2023-07-29T12:44:29;2.45;;;1.60;;
11829;SDS011;5972;42.134;24.718;2023-07-29T12:46:56;4.22;;;1.52;;
11829;SDS011;5972;42.134;24.718;2023-07-29T12:49:24;1.70;;;1.60;;
11829;SDS011;5972;42.134;24.718;2023-07-29T12:51:51;2.90;;;1.50;;
11829;SDS011;5972;42.134;24.718;2023-07-29T12:54:18;1.55;;;1.48;;
11829;SDS011;5972;42.134;24.718;2023-07-29T12:56:44;1.55;;;1.40;;
11829;SDS011;5972;42.134;24.718;2023-07-29T12:59:11;1.60;;;1.50;;
11829;SDS011;5972;42.134;24.718;2023-07-29T13:01:40;2.60;;;1.60;;
11829;SDS011;5972;42.134;24.718;2023-07-29T13:04:06;2.40;;;1.33;;
11829;SDS011;5972;42.134;24.718;2023-07-29T13:06:33;2.90;;;1.70;;
11829;SDS011;5972;42.134;24.718;2023-07-29T13:09:00;1.55;;;1.20;;
11829;SDS011;5972;42.134;24.718;2023-07-29T13:11:28;1.85;;;1.40;;
11829;SDS011;5972;42.134;24.718;2023-07-29T13:13:57;1.80;;;1.35;;
11829;SDS011;5972;42.134;24.718;2023-07-29T13:16:25;2.30;;;1.20;;
11829;SDS011;5972;42.134;24.718;2023-07-29T13:18:54;1.85;;;1.30;;
11829;SDS011;5972;42.134;24.718;2023-07-29T13:21:20;2.85;;;1.17;;
11829;SDS011;5972;42.134;24.718;2023-07-29T13:23:47;1.48;;;1.10;;
11829;SDS011;5972;42.134;24.718;2023-07-29T13:26:14;1.10;;;1.10;;
11829;SDS011;5972;42.134;24.718;2023-07-29T13:28:41;2.92;;;1.25;;
11829;SDS011;5972;42.134;24.718;2023-07-29T13:31:08;2.35;;;0.98;;
11829;SDS011;5972;42.134;24.718;2023-07-29T13:33:34;2.33;;;1.17;;
11829;SDS011;5972;42.134;24.718;2023-07-29T13:36:03;1.00;;;1.00;;
11829;SDS011;5972;42.134;24.718;2023-07-29T13:38:30;1.42;;;1.20;;
11829;SDS011;5972;42.134;24.718;2023-07-29T13:40:56;1.58;;;1.00;;
11829;SDS011;5972;42.134;24.718;2023-07-29T13:43:23;1.42;;;1.27;;
11829;SDS011;5972;42.134;24.718;2023-07-29T13:45:50;1.63;;;0.93;;
11829;SDS011;5972;42.134;24.718;2023-07-29T13:48:17;1.05;;;1.00;;
11829;SDS011;5972;42.134;24.718;2023-07-29T13:50:44;4.45;;;1.17;;
11829;SDS011;5972;42.134;24.718;2023-07-29T13:53:12;1.48;;;1.38;;
11829;SDS011;5972;42.134;24.718;2023-07-29T13:55:39;1.58;;;1.10;;
11829;SDS011;5972;42.134;24.718;2023-07-29T13:58:06;1.40;;;1.30;;
11829;SDS011;5972;42.134;24.718;2023-07-29T14:00:33;1.80;;;1.30;;
11829;SDS011;5972;42.134;24.718;2023-07-29T14:02:59;1.90;;;1.20;;
11829;SDS011;5972;42.134;24.718;2023-07-29T14:05:26;1.15;;;1.13;;
11829;SDS011;5972;42.134;24.718;2023-07-29T14:07:53;2.67;;;1.13;;
11829;SDS011;5972;42.134;24.718;2023-07-29T14:10:21;1.20;;;1.20;;
11829;SDS011;5972;42.134;24.718;2023-07-29T14:12:48;4.15;;;1.40;;
11829;SDS011;5972;42.134;24.718;2023-07-29T14:15:15;2.45;;;1.27;;
11829;SDS011;5972;42.134;24.718;2023-07-29T14:17:42;2.20;;;1.20;;
11829;SDS011;5972;42.134;24.718;2023-07-29T14:20:09;1.88;;;1.42;;
11829;SDS011;5972;42.134;24.718;2023-07-29T14:22:36;1.60;;;1.50;;
11829;SDS011;5972;42.134;24.718;2023-07-29T14:25:03;1.40;;;1.30;;
11829;SDS011;5972;42.134;24.718;2023-07-29T14:27:32;3.15;;;1.40;;
11829;SDS011;5972;42.134;24.718;2023-07-29T14:29:59;1.33;;;1.27;;
11829;SDS011;5972;42.134;24.718;2023-07-29T14:32:26;1.40;;;1.30;;
11829;SDS011;5972;42.134;24.718;2023-07-29T14:34:53;1.20;;;1.17;;
11829;SDS011;5972;42.134;24.718;2023-07-29T14:37:20;2.47;;;1.42;;
11829;SDS011;5972;42.134;24.718;2023-07-29T14:39:47;3.38;;;1.40;;
11829;SDS011;5972;42.134;24.718;2023-07-29T14:42:14;1.02;;;1.02;;
11829;SDS011;5972;42.134;24.718;2023-07-29T14:44:42;2.20;;;1.30;;
11829;SDS011;5972;42.134;24.718;2023-07-29T14:47:09;1.80;;;1.30;;
11829;SDS011;5972;42.134;24.718;2023-07-29T14:49:36;1.38;;;1.27;;
11829;SDS011;5972;42.134;24.718;2023-07-29T14:52:03;1.15;;;1.15;;